createdAt,value
2023-03-23T16:01:42.339Z,50.21
2023-03-23T16:06:46.937Z,50.48
2023-03-23T16:11:52.086Z,50.50
2023-03-23T16:16:55.580Z,50.81
2023-03-23T16:21:59.199Z,51.05
2023-03-23T16:27:04.006Z,51.65
2023-03-23T16:32:07.957Z,51.40
2023-03-23T16:37:12.990Z,51.32
2023-03-23T16:42:18.786Z,51.50
2023-03-23T16:47:25.451Z,52.12
2023-03-23T16:52:29.042Z,51.49
2023-03-23T16:57:34.977Z,52.02
2023-03-23T17:02:39.145Z,51.91
2023-03-23T17:07:43.355Z,52.41
2023-03-23T17:12:48.541Z,52.56
2023-03-23T17:17:52.665Z,52.67
2023-03-23T17:22:56.853Z,52.87
2023-03-23T17:28:05.033Z,54.35
2023-03-23T17:33:09.782Z,54.49
2023-03-23T17:38:14.108Z,54.53
2023-03-23T17:43:19.011Z,55.13
2023-03-23T17:48:23.407Z,55.13
2023-03-23T17:53:27.347Z,56.38
2023-03-23T17:58:32.487Z,56.40
2023-03-23T18:03:35.989Z,56.96
2023-03-23T18:08:39.992Z,57.22
2023-03-23T18:13:44.801Z,58.03
2023-03-23T18:18:48.573Z,57.83
2023-03-23T18:23:59.186Z,59.19
2023-03-23T18:29:05.660Z,59.28
2023-03-23T18:34:09.475Z,60.01
2023-03-23T18:39:13.650Z,59.60
2023-03-23T18:44:18.724Z,60.28
2023-03-23T18:49:22.649Z,60.48
2023-03-23T18:54:26.211Z,60.82
2023-03-23T18:59:33.937Z,61.60
2023-03-23T19:04:37.341Z,61.15
2023-03-23T19:09:41.590Z,61.44
2023-03-23T19:14:46.677Z,62.31
2023-03-23T19:19:50.274Z,62.12
2023-03-23T19:24:53.784Z,61.75
2023-03-23T19:29:59.127Z,61.84
2023-03-23T19:35:03.721Z,61.93
2023-03-23T19:40:31.308Z,62.35
2023-03-23T19:45:35.018Z,62.58
2023-03-23T19:50:40.673Z,63.09
2023-03-23T19:55:44.362Z,63.13
2023-03-23T20:00:50.630Z,63.27
2023-03-23T20:06:01.434Z,63.39
2023-03-23T20:11:06.010Z,63.30
2023-03-23T20:16:11.402Z,62.92
2023-03-23T20:21:19.865Z,63.22
2023-03-23T20:26:31.068Z,62.96
2023-03-23T20:31:37.945Z,62.96
2023-03-23T20:36:45.328Z,63.89
2023-03-23T20:41:50.935Z,64.03
2023-03-23T20:46:56.326Z,64.33
2023-03-23T20:52:00.333Z,64.06
2023-03-23T20:57:03.755Z,64.87
2023-03-23T21:02:09.549Z,64.51
2023-03-23T21:07:13.901Z,64.57
2023-03-23T21:12:17.356Z,64.65
2023-03-23T21:17:22.377Z,64.76
2023-03-23T21:22:26.240Z,64.58
2023-03-23T21:27:29.970Z,65.18
2023-03-23T21:32:34.923Z,64.74
2023-03-23T21:37:38.702Z,65.15
2023-03-23T21:42:42.338Z,64.94
2023-03-23T21:47:47.570Z,64.98
2023-03-23T21:52:54.200Z,65.45
2023-03-23T21:57:57.591Z,65.55
2023-03-23T22:03:02.793Z,65.30
2023-03-23T22:08:07.115Z,65.60
2023-03-23T22:13:12.050Z,66.11
2023-03-23T22:18:17.279Z,66.03
2023-03-23T22:23:20.979Z,66.19
2023-03-23T22:28:26.607Z,66.35
2023-03-23T22:33:32.206Z,66.81
2023-03-23T22:38:36.965Z,67.20
2023-03-23T22:43:40.658Z,67.35
2023-03-23T22:48:46.061Z,67.71
2023-03-23T22:53:50.051Z,67.92
2023-03-23T22:58:53.486Z,67.28
2023-03-23T23:03:58.717Z,67.72
2023-03-23T23:09:02.488Z,68.12
2023-03-23T23:14:06.372Z,68.06
2023-03-23T23:19:11.487Z,68.26
2023-03-23T23:24:15.191Z,68.64
2023-03-23T23:29:18.789Z,68.25
2023-03-23T23:34:25.411Z,68.63
2023-03-23T23:39:29.095Z,69.30
2023-03-23T23:44:32.771Z,68.81
2023-03-23T23:49:37.881Z,69.00
2023-03-23T23:54:42.683Z,68.84
2023-03-23T23:59:46.249Z,69.41
